Airfield :
LOGIN :

Register | Disclaimer

   EN    FR    IT 

 










Legend :    VFR   Marginal VFR   IFR   Intensive IFR   Very Intensive IFR
Visi :
Ceiling :
>= 8 km
>= 3000ft
5 to 8 km
1000 to 3000 ft
1500m to 5 km
500 to 1000 ft
800 to 1500m
200 to 500 ft
< 800m
< 200 ft
Symbols :   Thunderstorms  Fog  Heavy snow  Heavy precipitations  Wind > 20 kt
SIGMETs :     Misc.  Thunderstorms  Icing  Turbulence  Mountain Waves  Volcanic Ashes






- Airport Elevation : 465 ft


ENFB - Statfjord B Platform

CURRENT METAR :
  • 120520Z AUTO 21043KT 9999NDV BKN023/// 07/01 Q0977 W///S6

EXPIRED METARs :
  • 120450Z AUTO 21044KT 9999NDV -SHRA SCT018/// BKN055/// 06/01 Q0977 W///S6
  • 120420Z AUTO 21041KT 9999NDV -SHRA SCT022/// BKN100/// 06/01 Q0977 W///S6
  • 120350Z AUTO 21042KT 9999NDV -SHRA BKN026/// 07/01 Q0976 W///S6
  • 120320Z AUTO 20040KT 9999NDV FEW024/// BKN089/// 06/00 Q0977 W///S7
  • 120250Z AUTO 21042KT 9999NDV -SHRA FEW020/// 07/02 Q0976 W///S7

TAF N/A



MET'MAP, your aeronautical weather chart ! - Copyright ORBIFLY December 2007 - Disclaimer

ORBIFLY MET'MAP TEAM :

Programming & Development : Alexandra Zaïnal
Concept & original design : Baudouin d'Aumeries
Assistance for programming : Marc-Olivier Méhu
Technical & hardware support : Manuel Goepfert

Contact : metmap@orbifly.com




SOURCES & CREDITS :

   NOAA